YUL weather

Montreal / Pierre Elliott Trudeau International Airport
Montréal, Quebec, Canada

Public forecast

Using degrees Celsius for public forecast. Weather courtesy of forecast.io.

METAR (pilot weather report)

Retrieved 2017/09/25 05:00 UTC (19 minutes ago):

CYUL 250500Z 20004KT 15SM FEW250 23/21 A3003 RMK CI1 SLP172 DENSITY ALT 1000FT

TAF (pilot weather forecast)

Retrieved 2017/09/25 03:42 UTC (2 hours ago):

TAF CYUL 250238Z 2503/2524 25006KT P6SM SCT250 BECMG 2504/2506 VRB03KT BECMG 2513/2515 23008KT RMK NXT FCST BY 250600Z